Terminal Aerodrome Forecast
Issued by NWS

Home | Current Version | Previous Version | Text Only | Print | Product List | Glossary On
Versions: 1 2 3 4 5 6 7 8 9 10 11 12 13 14 15 16 17 18 19 20 21 22 23 24 25 26 27
000
FTPA31 PHFO 160500
TAFJRF
TAF
PHJR 160520Z 1606/1706 05006KT P6SM FEW030 BKN045
     FM161900 06008G15KT P6SM FEW030 SCT045
     FM170500 05006KT P6SM FEW030 SCT045=

USA.gov is the U.S. government's official web portal to all federal, state and local government web resources and services.